Time;durP1;ratioP1;P1;durP2;ratioP2;P2;SDS_P1;SDS_P2;PMS_P1;PMS_P2;Temp;Humidity;BMP_temperature;BMP_pressure;BME280_temperature;BME280_humidity;BME280_pressure;Samples;Min_cycle;Max_cycle;Signal;HPM_P1;HPM_P2
2022/09/28 00:02:15;;;;;;;;;;;384.70;2329.60;;;;;;5094348;28;20274;-63
2022/09/28 00:04:40;;;;;;;;;;;384.70;2329.60;;;;;;5093199;28;20010;-64
2022/09/28 00:07:07;;;;;;;;;;;384.70;2329.60;;;;;;5093759;28;20323;-64
2022/09/28 00:09:32;;;;;;;;;;;384.70;2329.60;;;;;;5093458;28;19912;-64
2022/09/28 00:11:58;;;;;;;;;;;384.60;2329.60;;;;;;5093823;28;19915;-64
2022/09/28 00:14:24;;;;;;;;;;;384.60;2329.60;;;;;;5093324;28;19915;-64
2022/09/28 00:16:49;;;;;;;;;;;384.60;2329.60;;;;;;5093293;28;19915;-64
2022/09/28 00:19:15;;;;;;;;;;;384.60;2329.60;;;;;;5093142;28;19919;-64
2022/09/28 00:21:40;;;;;;;;;;;384.50;2329.60;;;;;;5092694;28;19912;-64
2022/09/28 00:24:14;;;;;;;;;;;384.50;2329.60;;;;;;5093110;28;20003;-64
2022/09/28 00:26:41;;;;;;;;;;;384.50;2329.60;;;;;;5093434;28;20384;-63
2022/09/28 00:29:12;;;;;;;;;;;384.50;2329.60;;;;;;5093510;28;19999;-64
2022/09/28 00:31:37;;;;;;;;;;;384.50;2329.60;;;;;;5093335;28;19916;-64
2022/09/28 00:34:04;;;;;;;;;;;384.50;2329.60;;;;;;5092545;28;19909;-63
2022/09/28 00:36:31;;;;;;;;;;;384.50;2329.60;;;;;;5092384;28;19920;-64
2022/09/28 00:38:57;;;;;;;;;;;384.50;2329.60;;;;;;5092743;28;19938;-64
2022/09/28 00:41:23;;;;;;;;;;;384.40;2329.60;;;;;;5092453;28;20010;-64
2022/09/28 00:43:49;;;;;;;;;;;384.40;2329.60;;;;;;5092588;28;19908;-63
2022/09/28 00:46:28;;;;;;;;;;;384.30;2329.60;;;;;;5092232;28;19916;-63
2022/09/28 00:48:57;;;;;;;;;;;384.30;2329.60;;;;;;5092896;28;19912;-62
2022/09/28 00:51:23;;;;;;;;;;;384.10;2329.60;;;;;;5092756;28;19908;-63
2022/09/28 00:53:49;;;;;;;;;;;384.00;2329.60;;;;;;5093303;28;20386;-62
2022/09/28 00:56:18;;;;;;;;;;;359.20;2329.60;;;;;;5092832;28;19915;-63
2022/09/28 00:58:48;;;;;;;;;;;359.20;2329.60;;;;;;5092578;28;19912;-63
2022/09/28 01:01:13;;;;;;;;;;;359.20;2329.60;;;;;;5092616;28;19912;-63
2022/09/28 01:03:44;;;;;;;;;;;359.20;2329.60;;;;;;5092610;28;19935;-63
2022/09/28 01:06:13;;;;;;;;;;;359.20;2329.60;;;;;;5092423;28;19931;-63
2022/09/28 01:08:39;;;;;;;;;;;359.20;2329.60;;;;;;5092653;28;20361;-63
2022/09/28 01:11:05;;;;;;;;;;;359.20;2329.60;;;;;;5091814;28;19943;-63
2022/09/28 01:13:31;;;;;;;;;;;359.20;2329.60;;;;;;5092398;28;19908;-62
2022/09/28 01:16:03;;;;;;;;;;;359.10;2329.60;;;;;;5091310;28;20002;-63
2022/09/28 01:18:48;;;;;;;;;;;359.20;2329.60;;;;;;5092519;28;19908;-62
2022/09/28 01:21:16;;;;;;;;;;;359.00;2329.60;;;;;;5092141;28;20258;-63
2022/09/28 01:23:49;;;;;;;;;;;359.20;2329.60;;;;;;5092003;28;20350;-63
2022/09/28 01:26:20;;;;;;;;;;;359.20;2329.60;;;;;;5092017;28;19968;-63
2022/09/28 01:28:47;;;;;;;;;;;359.30;2329.60;;;;;;5092368;28;20350;-63
2022/09/28 01:31:14;;;;;;;;;;;384.00;2329.60;;;;;;5092290;28;19944;-62
2022/09/28 01:33:49;;;;;;;;;;;384.00;2329.60;;;;;;5091937;28;19916;-63
2022/09/28 01:36:18;;;;;;;;;;;384.10;2329.60;;;;;;5091883;28;20401;-63
2022/09/28 01:38:52;;;;;;;;;;;384.20;2329.60;;;;;;5091746;28;19908;-63
2022/09/28 01:41:18;;;;;;;;;;;384.20;2329.60;;;;;;5092387;28;19912;-63
2022/09/28 01:43:54;;;;;;;;;;;384.30;2329.60;;;;;;5091746;28;20358;-64
2022/09/28 01:46:22;;;;;;;;;;;384.30;2329.60;;;;;;5091660;28;19920;-64
2022/09/28 01:48:53;;;;;;;;;;;384.40;2329.60;;;;;;5092018;28;20372;-63
2022/09/28 01:51:51;;;;;;;;;;;384.40;2329.60;;;;;;5092027;28;19912;-63
2022/09/28 01:54:20;;;;;;;;;;;384.50;2329.60;;;;;;5079508;28;19908;-63
2022/09/28 01:57:09;;;;;;;;;;;384.50;2329.60;;;;;;5091794;28;19912;-64
2022/09/28 01:59:36;;;;;;;;;;;384.50;2329.60;;;;;;5069105;28;20003;-64
2022/09/28 02:02:05;;;;;;;;;;;384.60;2329.60;;;;;;5068712;28;19908;-64
2022/09/28 02:04:35;;;;;;;;;;;384.60;2329.60;;;;;;5068605;28;19927;-64
2022/09/28 02:07:11;;;;;;;;;;;384.60;2329.60;;;;;;5068615;28;19924;-64
2022/09/28 02:09:39;;;;;;;;;;;384.60;2329.60;;;;;;5069153;28;19943;-63
2022/09/28 02:12:08;;;;;;;;;;;384.70;2329.60;;;;;;5068698;28;19916;-63
2022/09/28 02:14:36;;;;;;;;;;;384.70;2329.60;;;;;;5068722;28;20378;-63
2022/09/28 02:17:02;;;;;;;;;;;384.60;2329.60;;;;;;5068655;28;19909;-64
2022/09/28 02:19:29;;;;;;;;;;;384.50;2329.60;;;;;;5068839;28;20283;-63
2022/09/28 02:22:10;;;;;;;;;;;384.50;2329.60;;;;;;5067475;28;20007;-64
2022/09/28 02:24:41;;;;;;;;;;;384.50;2329.60;;;;;;5068620;28;20320;-63
2022/09/28 02:27:11;;;;;;;;;;;384.60;2329.60;;;;;;5068677;28;19958;-63
2022/09/28 02:29:36;;;;;;;;;;;384.60;2329.60;;;;;;5068636;28;20330;-65
2022/09/28 02:32:02;;;;;;;;;;;384.60;2329.60;;;;;;5068539;28;20003;-63
2022/09/28 02:34:28;;;;;;;;;;;384.70;2329.60;;;;;;5068516;28;19909;-63
2022/09/28 02:36:53;;;;;;;;;;;384.70;2329.60;;;;;;5082509;28;20669;-64
2022/09/28 02:39:19;;;;;;;;;;;384.70;2329.60;;;;;;5091142;28;20374;-63
2022/09/28 02:41:54;;;;;;;;;;;384.70;2329.60;;;;;;5090729;28;19915;-63
2022/09/28 02:44:38;;;;;;;;;;;384.80;2329.60;;;;;;5091156;28;19919;-63
2022/09/28 02:47:09;;;;;;;;;;;384.50;2329.60;;;;;;5090736;28;19927;-62
2022/09/28 02:49:41;;;;;;;;;;;384.70;2329.60;;;;;;5090697;28;19947;-64
2022/09/28 02:52:25;;;;;;;;;;;384.60;2329.60;;;;;;5090788;28;19912;-64
2022/09/28 02:54:56;;;;;;;;;;;384.70;2329.60;;;;;;5090869;28;19912;-64
2022/09/28 02:57:25;;;;;;;;;;;384.60;2329.60;;;;;;5090464;28;20433;-63
2022/09/28 02:59:56;;;;;;;;;;;384.60;2329.60;;;;;;5090741;28;19912;-64
2022/09/28 03:02:34;;;;;;;;;;;384.60;2329.60;;;;;;5090281;28;20278;-64
2022/09/28 03:05:13;;;;;;;;;;;384.70;2329.60;;;;;;5090213;28;19989;-63
2022/09/28 03:07:43;;;;;;;;;;;384.60;2329.60;;;;;;5090465;28;19908;-63
2022/09/28 03:10:18;;;;;;;;;;;384.60;2329.60;;;;;;5090580;28;20361;-63
2022/09/28 03:12:45;;;;;;;;;;;384.60;2329.60;;;;;;5090280;28;19912;-63
2022/09/28 03:15:19;;;;;;;;;;;384.60;2329.60;;;;;;5090259;28;20356;-62
2022/09/28 03:17:45;;;;;;;;;;;384.50;2329.60;;;;;;5090095;28;19909;-63
2022/09/28 03:20:11;;;;;;;;;;;384.40;2329.60;;;;;;5090069;28;19919;-63
2022/09/28 03:22:36;;;;;;;;;;;384.40;2329.60;;;;;;5090394;28;20334;-62
2022/09/28 03:25:02;;;;;;;;;;;384.50;2329.60;;;;;;5090051;28;20001;-63
2022/09/28 03:27:27;;;;;;;;;;;384.60;2329.60;;;;;;5090815;28;19923;-63
2022/09/28 03:29:53;;;;;;;;;;;384.50;2329.60;;;;;;5090138;28;19908;-63
2022/09/28 03:32:18;;;;;;;;;;;384.50;2329.60;;;;;;5090817;28;20011;-63
2022/09/28 03:34:44;;;;;;;;;;;384.40;2329.60;;;;;;5093780;28;19916;-63
2022/09/28 03:37:09;;;;;;;;;;;384.30;2329.60;;;;;;5094534;28;20370;-62
2022/09/28 03:39:36;;;;;;;;;;;384.20;2329.60;;;;;;5093422;28;19959;-63
2022/09/28 03:42:01;;;;;;;;;;;384.20;2329.60;;;;;;5093714;28;19915;-63
2022/09/28 03:44:27;;;;;;;;;;;384.30;2329.60;;;;;;5094435;28;19994;-63
2022/09/28 03:46:52;;;;;;;;;;;384.30;2329.60;;;;;;5094245;28;19916;-63
2022/09/28 03:49:18;;;;;;;;;;;384.20;2329.60;;;;;;5094768;28;19908;-63
2022/09/28 03:51:43;;;;;;;;;;;384.30;2329.60;;;;;;5094126;28;19909;-63
2022/09/28 03:54:09;;;;;;;;;;;384.30;2329.60;;;;;;5094585;28;19918;-62
2022/09/28 03:56:34;;;;;;;;;;;384.30;2329.60;;;;;;5094264;28;19985;-63
2022/09/28 03:59:02;;;;;;;;;;;384.30;2329.60;;;;;;5094387;28;19908;-63
2022/09/28 04:01:27;;;;;;;;;;;384.30;2329.60;;;;;;5094376;28;19911;-63
2022/09/28 04:03:56;;;;;;;;;;;384.30;2329.60;;;;;;5093864;28;20357;-63
2022/09/28 04:06:22;;;;;;;;;;;384.30;2329.60;;;;;;5094185;28;19927;-64
2022/09/28 04:08:48;;;;;;;;;;;384.30;2329.60;;;;;;5094497;28;19914;-64
2022/09/28 04:11:13;;;;;;;;;;;384.20;2329.60;;;;;;5093961;28;19998;-64
2022/09/28 04:13:39;;;;;;;;;;;384.30;2329.60;;;;;;5094304;28;19908;-63
2022/09/28 04:16:04;;;;;;;;;;;384.20;2329.60;;;;;;5093915;28;19962;-63
2022/09/28 04:18:31;;;;;;;;;;;384.10;2329.60;;;;;;5094177;28;19994;-63
2022/09/28 04:20:58;;;;;;;;;;;384.10;2329.60;;;;;;5093884;28;19908;-63
2022/09/28 04:23:23;;;;;;;;;;;384.10;2329.60;;;;;;5093890;28;19953;-64
2022/09/28 04:25:52;;;;;;;;;;;384.10;2329.60;;;;;;5093968;28;19916;-63
2022/09/28 04:31:02;;;;;;;;;;;384.10;2329.60;;;;;;5092964;28;19965;-62
2022/09/28 04:33:28;;;;;;;;;;;384.10;2329.60;;;;;;5093205;28;20311;-63
2022/09/28 04:35:53;;;;;;;;;;;384.10;2329.60;;;;;;5093540;28;20425;-63
2022/09/28 04:38:19;;;;;;;;;;;384.20;2329.60;;;;;;5093937;28;19950;-63
2022/09/28 04:40:47;;;;;;;;;;;384.20;2329.60;;;;;;5093234;28;19916;-63
2022/09/28 04:43:13;;;;;;;;;;;384.20;2329.60;;;;;;5092194;28;20324;-63
2022/09/28 04:45:39;;;;;;;;;;;384.20;2329.60;;;;;;5092431;28;19916;-62
2022/09/28 04:48:07;;;;;;;;;;;384.20;2329.60;;;;;;5093218;28;20002;-63
2022/09/28 04:50:33;;;;;;;;;;;384.20;2329.60;;;;;;5092632;28;20274;-62
2022/09/28 04:53:02;;;;;;;;;;;384.20;2329.60;;;;;;5092586;28;19908;-63
2022/09/28 04:55:31;;;;;;;;;;;384.30;2329.60;;;;;;5093161;28;19988;-62
2022/09/28 04:58:02;;;;;;;;;;;384.30;2329.60;;;;;;5093224;28;19960;-63
2022/09/28 05:00:28;;;;;;;;;;;384.30;2329.60;;;;;;5093214;28;19915;-63
2022/09/28 05:02:54;;;;;;;;;;;384.30;2329.60;;;;;;5092696;28;19916;-63
2022/09/28 05:05:20;;;;;;;;;;;384.30;2329.60;;;;;;5092855;28;19928;-63
2022/09/28 05:07:46;;;;;;;;;;;384.40;2329.60;;;;;;5093073;28;20354;-63
2022/09/28 05:10:12;;;;;;;;;;;384.30;2329.60;;;;;;5092820;28;20002;-63
2022/09/28 05:12:37;;;;;;;;;;;384.30;2329.60;;;;;;5092841;28;19915;-63
2022/09/28 05:15:03;;;;;;;;;;;384.30;2329.60;;;;;;5092958;28;19908;-63
2022/09/28 05:17:29;;;;;;;;;;;384.30;2329.60;;;;;;5093106;28;19908;-64
2022/09/28 05:19:54;;;;;;;;;;;384.30;2329.60;;;;;;5092791;28;20362;-63
2022/09/28 05:22:20;;;;;;;;;;;384.40;2329.60;;;;;;5092857;28;19912;-63
2022/09/28 05:24:46;;;;;;;;;;;384.30;2329.60;;;;;;5092790;28;19915;-64
2022/09/28 05:27:11;;;;;;;;;;;384.30;2329.60;;;;;;5092319;28;19916;-64
2022/09/28 05:29:37;;;;;;;;;;;384.40;2329.60;;;;;;5092506;28;20010;-63
2022/09/28 05:32:02;;;;;;;;;;;384.50;2329.60;;;;;;5092389;28;19908;-63
2022/09/28 05:34:28;;;;;;;;;;;384.60;2329.60;;;;;;5092272;28;19920;-63
2022/09/28 05:36:53;;;;;;;;;;;384.60;2329.60;;;;;;5092207;28;19981;-63
2022/09/28 05:39:19;;;;;;;;;;;384.70;2329.60;;;;;;5092468;28;19915;-63
2022/09/28 05:41:45;;;;;;;;;;;384.60;2329.60;;;;;;5092141;28;19914;-63
2022/09/28 05:44:10;;;;;;;;;;;384.60;2329.60;;;;;;5092023;28;19912;-64
2022/09/28 05:46:36;;;;;;;;;;;384.60;2329.60;;;;;;5092119;28;19970;-64
2022/09/28 05:49:01;;;;;;;;;;;384.60;2329.60;;;;;;5091852;28;19915;-62
2022/09/28 05:51:27;;;;;;;;;;;384.40;2329.60;;;;;;5092072;28;19969;-64
2022/09/28 05:53:53;;;;;;;;;;;384.50;2329.60;;;;;;5091869;28;19914;-64
2022/09/28 05:56:19;;;;;;;;;;;384.60;2329.60;;;;;;5091981;28;20324;-64
2022/09/28 05:58:44;;;;;;;;;;;384.60;2329.60;;;;;;5091872;28;19914;-63
2022/09/28 06:01:10;;;;;;;;;;;384.60;2329.60;;;;;;5092007;28;19908;-63
2022/09/28 06:03:35;;;;;;;;;;;384.70;2329.60;;;;;;5091611;28;19939;-63
2022/09/28 06:06:03;;;;;;;;;;;384.60;2329.60;;;;;;5091735;28;20374;-64
2022/09/28 06:08:32;;;;;;;;;;;384.60;2329.60;;;;;;5092002;28;19908;-63
2022/09/28 06:10:59;;;;;;;;;;;384.80;2329.60;;;;;;5091647;28;20322;-62
2022/09/28 06:13:26;;;;;;;;;;;384.90;2329.60;;;;;;5091481;28;19988;-64
2022/09/28 06:15:52;;;;;;;;;;;384.90;2329.60;;;;;;5091586;28;19908;-62
2022/09/28 06:18:17;;;;;;;;;;;384.90;2329.60;;;;;;5091941;28;19916;-63
2022/09/28 06:20:43;;;;;;;;;;;409.70;2355.20;;;;;;5091562;28;19915;-61
2022/09/28 06:23:09;;;;;;;;;;;409.90;2355.20;;;;;;5091622;28;19908;-62
2022/09/28 06:25:35;;;;;;;;;;;410.00;2355.20;;;;;;5091201;28;19916;-62
2022/09/28 06:28:02;;;;;;;;;;;410.20;2355.20;;;;;;5091498;28;19908;-62
2022/09/28 06:30:28;;;;;;;;;;;410.30;2355.20;;;;;;5091401;28;19947;-62
2022/09/28 06:32:54;;;;;;;;;;;410.20;2355.20;;;;;;5091216;28;19954;-70
2022/09/28 06:35:20;;;;;;;;;;;410.00;2355.20;;;;;;5091504;28;20350;-58
2022/09/28 06:37:46;;;;;;;;;;;409.90;2355.20;;;;;;5091336;28;19915;-59
2022/09/28 06:40:12;;;;;;;;;;;409.80;2355.20;;;;;;5091207;28;19916;-59
2022/09/28 06:42:37;;;;;;;;;;;409.90;2355.20;;;;;;5091222;28;19908;-59
2022/09/28 06:45:03;;;;;;;;;;;409.90;2355.20;;;;;;5090964;28;19961;-70
2022/09/28 06:47:30;;;;;;;;;;;409.70;2355.20;;;;;;5091394;28;20257;-59
2022/09/28 06:49:56;;;;;;;;;;;409.70;2355.20;;;;;;5091179;28;20438;-67
2022/09/28 06:52:21;;;;;;;;;;;409.70;2355.20;;;;;;5090782;28;19943;-65
2022/09/28 06:54:47;;;;;;;;;;;409.80;2355.20;;;;;;5091288;28;19908;-58
2022/09/28 06:57:13;;;;;;;;;;;409.80;2355.20;;;;;;5090851;28;19915;-66
2022/09/28 06:59:38;;;;;;;;;;;409.90;2355.20;;;;;;5090979;28;19915;-58
2022/09/28 07:02:04;;;;;;;;;;;409.90;2355.20;;;;;;5090766;28;19915;-67
2022/09/28 07:04:30;;;;;;;;;;;410.00;2355.20;;;;;;5090575;28;19924;-66
2022/09/28 07:06:56;;;;;;;;;;;410.00;2355.20;;;;;;5090490;28;19959;-67
2022/09/28 07:09:21;;;;;;;;;;;409.90;2355.20;;;;;;5090209;28;19943;-58
2022/09/28 07:11:47;;;;;;;;;;;410.00;2355.20;;;;;;5090935;28;19936;-66
2022/09/28 07:14:12;;;;;;;;;;;410.30;2355.20;;;;;;5090545;28;19908;-58
2022/09/28 07:16:38;;;;;;;;;;;410.50;2355.20;;;;;;5091187;28;19953;-66
2022/09/28 07:19:03;;;;;;;;;;;410.30;2355.20;;;;;;5090601;28;19908;-58
2022/09/28 07:21:29;;;;;;;;;;;410.50;2355.20;;;;;;5090751;28;19908;-66
2022/09/28 07:23:54;;;;;;;;;;;435.60;2355.20;;;;;;5090492;28;19986;-66
2022/09/28 07:26:20;;;;;;;;;;;460.80;2380.80;;;;;;5090587;28;19920;-62
2022/09/28 07:28:46;;;;;;;;;;;461.10;2380.80;;;;;;5090715;28;20030;-66
2022/09/28 07:31:11;;;;;;;;;;;461.10;2380.80;;;;;;5090294;28;20053;-59
2022/09/28 07:33:37;;;;;;;;;;;460.90;2380.80;;;;;;5090480;28;19959;-58
2022/09/28 07:36:05;;;;;;;;;;;461.10;2380.80;;;;;;5090453;28;19919;-60
2022/09/28 07:38:31;;;;;;;;;;;436.10;2355.20;;;;;;5089881;28;19912;-60
2022/09/28 07:41:13;;;;;;;;;;;436.10;2355.20;;;;;;5089981;28;20016;-58
2022/09/28 07:43:39;;;;;;;;;;;436.10;2355.20;;;;;;5088620;28;20251;-58
2022/09/28 07:46:08;;;;;;;;;;;436.10;2355.20;;;;;;5098110;28;19920;-58
2022/09/28 07:48:36;;;;;;;;;;;486.70;2380.80;;;;;;5096672;28;19912;-68
2022/09/28 07:51:03;;;;;;;;;;;486.90;2380.80;;;;;;5096482;28;19931;-66
2022/09/28 07:53:29;;;;;;;;;;;486.70;2380.80;;;;;;5097753;28;20912;-67
2022/09/28 07:55:56;;;;;;;;;;;486.40;2380.80;;;;;;5079835;28;19926;-65
2022/09/28 07:58:22;;;;;;;;;;;461.40;2380.80;;;;;;5079632;28;19908;-65
2022/09/28 08:00:48;;;;;;;;;;;461.70;2380.80;;;;;;5081527;28;19977;-57
2022/09/28 08:03:14;;;;;;;;;;;460.80;2380.80;;;;;;5089877;28;19912;-58
2022/09/28 08:05:41;;;;;;;;;;;461.00;2380.80;;;;;;5090213;28;19996;-66
2022/09/28 08:08:07;;;;;;;;;;;436.00;2355.20;;;;;;5090140;28;20357;-65
2022/09/28 08:10:33;;;;;;;;;;;435.90;2355.20;;;;;;5088558;28;20286;-60
2022/09/28 08:13:02;;;;;;;;;;;435.90;2355.20;;;;;;5088617;28;19920;-59
2022/09/28 08:15:32;;;;;;;;;;;436.00;2355.20;;;;;;5090328;28;20045;-66
2022/09/28 08:17:57;;;;;;;;;;;436.10;2355.20;;;;;;5090422;28;20007;-64
2022/09/28 08:23:08;;;;;;;;;;;487.30;2380.80;;;;;;5094110;28;20005;-68
2022/09/28 08:25:35;;;;;;;;;;;512.80;2380.80;;;;;;5093510;28;19916;-60
2022/09/28 08:28:01;;;;;;;;;;;512.10;2380.80;;;;;;5093644;28;19912;-59
2022/09/28 08:30:26;;;;;;;;;;;537.70;2406.40;;;;;;5093744;28;19914;-69
2022/09/28 08:32:52;;;;;;;;;;;563.60;2432.00;;;;;;5093317;28;19969;-61
2022/09/28 08:35:18;;;;;;;;;;;589.10;2432.00;;;;;;5093871;28;20360;-65
2022/09/28 08:37:49;;;;;;;;;;;640.00;2150.40;;;;;;5092885;28;19995;-68
2022/09/28 08:40:19;;;;;;;;;;;589.70;2227.20;;;;;;5093556;28;19912;-65
2022/09/28 08:42:44;;;;;;;;;;;589.40;2278.40;;;;;;5093707;28;19908;-66
2022/09/28 08:45:13;;;;;;;;;;;615.30;2150.40;;;;;;5093575;28;19971;-59
2022/09/28 08:50:36;;;;;;;;;;;666.50;1996.80;;;;;;5093220;28;20423;-65
2022/09/28 08:53:25;;;;;;;;;;;640.90;1971.20;;;;;;5092726;28;19914;-67
2022/09/28 08:55:51;;;;;;;;;;;665.80;1945.60;;;;;;5092383;28;19916;-59
2022/09/28 08:58:21;;;;;;;;;;;614.70;2073.60;;;;;;5093528;28;19912;-66
2022/09/28 09:00:48;;;;;;;;;;;589.30;2176.00;;;;;;5093502;28;19914;-61
2022/09/28 09:03:19;;;;;;;;;;;614.70;2073.60;;;;;;5092790;28;20370;-69
2022/09/28 09:05:54;;;;;;;;;;;614.40;2124.80;;;;;;5092409;28;19924;-65
2022/09/28 09:08:39;;;;;;;;;;;589.20;2201.60;;;;;;5093151;28;19912;-60
2022/09/28 09:11:16;;;;;;;;;;;564.00;2304.00;;;;;;5092894;28;20255;-61
2022/09/28 09:13:44;;;;;;;;;;;563.50;2355.20;;;;;;5092824;28;19955;-61
2022/09/28 09:16:15;;;;;;;;;;;563.60;2355.20;;;;;;5092418;28;19920;-66
2022/09/28 09:18:40;;;;;;;;;;;563.50;2380.80;;;;;;5092907;28;20261;-61
2022/09/28 09:21:09;;;;;;;;;;;563.70;2380.80;;;;;;5092508;28;19915;-58
2022/09/28 09:23:53;;;;;;;;;;;538.40;2406.40;;;;;;5092611;28;19908;-68
2022/09/28 09:26:19;;;;;;;;;;;538.50;2406.40;;;;;;5092772;28;20369;-60
2022/09/28 09:28:52;;;;;;;;;;;563.20;2432.00;;;;;;5092334;28;19961;-68
2022/09/28 09:31:20;;;;;;;;;;;563.60;2432.00;;;;;;5092400;28;19911;-65
2022/09/28 09:34:06;;;;;;;;;;;563.90;2355.20;;;;;;5092391;28;19912;-70
2022/09/28 09:36:37;;;;;;;;;;;563.70;2380.80;;;;;;5092393;28;19912;-61
2022/09/28 09:39:06;;;;;;;;;;;538.50;2406.40;;;;;;5092178;28;19908;-64
2022/09/28 09:41:31;;;;;;;;;;;538.30;2406.40;;;;;;5092134;28;19908;-62
2022/09/28 09:44:04;;;;;;;;;;;538.00;2406.40;;;;;;5092648;28;19915;-60
2022/09/28 09:46:29;;;;;;;;;;;537.70;2406.40;;;;;;5092542;28;19969;-65
2022/09/28 09:48:59;;;;;;;;;;;538.00;2406.40;;;;;;5092327;28;20316;-60
2022/09/28 09:51:31;;;;;;;;;;;537.90;2406.40;;;;;;5092054;28;19916;-68
2022/09/28 09:54:10;;;;;;;;;;;538.00;2406.40;;;;;;5092117;28;19908;-69
2022/09/28 09:56:39;;;;;;;;;;;537.90;2406.40;;;;;;5091869;28;19915;-60
2022/09/28 09:59:07;;;;;;;;;;;538.20;2406.40;;;;;;5091945;28;19919;-68
2022/09/28 10:01:40;;;;;;;;;;;537.90;2406.40;;;;;;5092021;28;20007;-67
2022/09/28 10:04:13;;;;;;;;;;;538.50;2406.40;;;;;;5091588;28;19927;-60
2022/09/28 10:06:40;;;;;;;;;;;538.50;2406.40;;;;;;5091805;28;19921;-69
2022/09/28 10:09:09;;;;;;;;;;;537.70;2406.40;;;;;;5091805;28;19908;-67
2022/09/28 10:11:37;;;;;;;;;;;512.90;2380.80;;;;;;5091842;28;19944;-67
2022/09/28 10:14:03;;;;;;;;;;;537.60;2406.40;;;;;;5091678;28;19908;-61
2022/09/28 10:16:29;;;;;;;;;;;512.90;2380.80;;;;;;5091932;28;19994;-67
2022/09/28 10:18:55;;;;;;;;;;;537.70;2406.40;;;;;;5091470;28;19912;-66
2022/09/28 10:21:21;;;;;;;;;;;537.80;2406.40;;;;;;5091738;28;20126;-66
2022/09/28 10:23:51;;;;;;;;;;;538.10;2406.40;;;;;;5091795;28;19912;-67
2022/09/28 10:26:23;;;;;;;;;;;537.80;2406.40;;;;;;5091510;28;19916;-63
2022/09/28 10:29:00;;;;;;;;;;;537.80;2406.40;;;;;;5091588;28;20354;-68
2022/09/28 10:31:33;;;;;;;;;;;512.80;2380.80;;;;;;5091429;28;19912;-66
2022/09/28 10:33:58;;;;;;;;;;;512.90;2380.80;;;;;;5091170;28;20385;-66
2022/09/28 10:36:25;;;;;;;;;;;537.80;2406.40;;;;;;5091185;28;19918;-62
2022/09/28 10:38:50;;;;;;;;;;;537.90;2406.40;;;;;;5091356;28;19912;-61
2022/09/28 10:41:17;;;;;;;;;;;537.80;2406.40;;;;;;5091644;28;20327;-67
2022/09/28 10:43:48;;;;;;;;;;;512.90;2380.80;;;;;;5090414;28;19915;-66
2022/09/28 10:46:20;;;;;;;;;;;512.80;2380.80;;;;;;5091091;28;19920;-66
2022/09/28 10:49:18;;;;;;;;;;;512.90;2380.80;;;;;;5091235;28;19914;-66
2022/09/28 10:51:45;;;;;;;;;;;512.90;2380.80;;;;;;5048462;28;19909;-66
2022/09/28 10:54:21;;;;;;;;;;;537.90;2406.40;;;;;;5048565;28;20013;-63
2022/09/28 10:56:47;;;;;;;;;;;537.70;2406.40;;;;;;5048755;28;19972;-66
2022/09/28 10:59:21;;;;;;;;;;;537.90;2406.40;;;;;;5048577;28;19948;-68
2022/09/28 11:01:51;;;;;;;;;;;537.80;2406.40;;;;;;5048546;28;20366;-67
2022/09/28 11:04:19;;;;;;;;;;;537.90;2406.40;;;;;;5048449;28;19921;-65
2022/09/28 11:06:45;;;;;;;;;;;537.60;2406.40;;;;;;5048163;28;19921;-63
2022/09/28 11:09:29;;;;;;;;;;;537.90;2406.40;;;;;;5048220;28;19924;-66
2022/09/28 11:11:56;;;;;;;;;;;537.90;2406.40;;;;;;5048252;28;20387;-68
2022/09/28 11:14:36;;;;;;;;;;;537.90;2406.40;;;;;;5048256;28;19916;-67
2022/09/28 11:17:21;;;;;;;;;;;537.90;2406.40;;;;;;5048190;28;19909;-60
2022/09/28 11:19:46;;;;;;;;;;;538.10;2406.40;;;;;;5048411;28;19909;-66
2022/09/28 11:22:23;;;;;;;;;;;538.30;2406.40;;;;;;5047983;28;20433;-62
2022/09/28 11:24:49;;;;;;;;;;;538.30;2406.40;;;;;;5048419;28;19920;-66
2022/09/28 11:27:22;;;;;;;;;;;538.40;2406.40;;;;;;5067974;28;19939;-64
2022/09/28 11:30:10;;;;;;;;;;;538.40;2406.40;;;;;;5090781;28;19908;-66
2022/09/28 11:32:43;;;;;;;;;;;538.30;2406.40;;;;;;5089997;28;19912;-60
2022/09/28 11:35:16;;;;;;;;;;;538.50;2406.40;;;;;;5090735;28;20001;-67
2022/09/28 11:37:53;;;;;;;;;;;538.50;2406.40;;;;;;5090349;28;19916;-59
2022/09/28 11:40:44;;;;;;;;;;;563.20;2432.00;;;;;;5090748;28;19994;-66
2022/09/28 11:43:16;;;;;;;;;;;538.30;2406.40;;;;;;5090458;28;20278;-59
2022/09/28 11:45:47;;;;;;;;;;;538.30;2406.40;;;;;;5089655;28;19931;-61
2022/09/28 11:48:42;;;;;;;;;;;538.40;2406.40;;;;;;5090470;28;19908;-60
2022/09/28 11:51:14;;;;;;;;;;;538.50;2406.40;;;;;;5068120;28;19948;-65
2022/09/28 11:53:51;;;;;;;;;;;563.20;2432.00;;;;;;5068350;28;20324;-61
2022/09/28 11:56:23;;;;;;;;;;;538.40;2406.40;;;;;;5072194;28;20042;-61
2022/09/28 11:58:51;;;;;;;;;;;538.50;2406.40;;;;;;5072105;28;19913;-61
2022/09/28 12:01:28;;;;;;;;;;;538.50;2406.40;;;;;;5072187;28;19915;-60
2022/09/28 12:03:59;;;;;;;;;;;563.20;2432.00;;;;;;5071579;28;19964;-61
2022/09/28 12:06:36;;;;;;;;;;;563.30;2432.00;;;;;;5071598;28;19921;-68
2022/09/28 12:09:23;;;;;;;;;;;538.50;2406.40;;;;;;5071749;28;19908;-61
2022/09/28 12:11:51;;;;;;;;;;;563.20;2432.00;;;;;;5071963;28;19909;-62
2022/09/28 12:14:28;;;;;;;;;;;563.30;2432.00;;;;;;5072135;28;20373;-68
2022/09/28 12:17:02;;;;;;;;;;;563.60;2432.00;;;;;;5071495;28;19912;-61
2022/09/28 12:19:32;;;;;;;;;;;563.50;2432.00;;;;;;5071729;28;19920;-65
2022/09/28 12:22:16;;;;;;;;;;;563.50;2432.00;;;;;;5071649;28;20381;-67
2022/09/28 12:24:46;;;;;;;;;;;563.50;2432.00;;;;;;5071237;28;20039;-60
2022/09/28 12:27:24;;;;;;;;;;;563.50;2432.00;;;;;;5079420;28;19927;-61
2022/09/28 12:30:12;;;;;;;;;;;563.70;2432.00;;;;;;5093995;28;20381;-67
2022/09/28 12:32:53;;;;;;;;;;;563.80;2432.00;;;;;;5071266;28;19954;-70
2022/09/28 12:35:24;;;;;;;;;;;563.60;2432.00;;;;;;5071409;28;19908;-68
2022/09/28 12:37:53;;;;;;;;;;;563.70;2432.00;;;;;;5071352;28;20455;-61
2022/09/28 12:40:30;;;;;;;;;;;563.80;2432.00;;;;;;5071609;28;19944;-61
2022/09/28 12:42:59;;;;;;;;;;;564.00;2432.00;;;;;;5071312;28;19908;-69
2022/09/28 12:45:28;;;;;;;;;;;564.10;2432.00;;;;;;5070810;28;20421;-68
2022/09/28 12:48:13;;;;;;;;;;;564.10;2432.00;;;;;;5071285;28;20267;-61
2022/09/28 12:50:48;;;;;;;;;;;564.10;2432.00;;;;;;5070680;28;19912;-62
2022/09/28 12:53:18;;;;;;;;;;;564.10;2432.00;;;;;;5070853;28;19909;-68
2022/09/28 12:55:50;;;;;;;;;;;564.10;2432.00;;;;;;5070964;28;19912;-72
2022/09/28 12:58:15;;;;;;;;;;;564.00;2432.00;;;;;;5070781;28;20330;-60
2022/09/28 13:00:50;;;;;;;;;;;564.00;2432.00;;;;;;5070813;28;19962;-61
2022/09/28 13:03:17;;;;;;;;;;;564.00;2432.00;;;;;;5070352;28;19966;-71
2022/09/28 13:06:03;;;;;;;;;;;563.90;2432.00;;;;;;5069704;28;19963;-71
2022/09/28 13:08:32;;;;;;;;;;;563.80;2432.00;;;;;;5071247;28;20420;-64
2022/09/28 13:11:17;;;;;;;;;;;564.00;2432.00;;;;;;5093137;28;19947;-63
2022/09/28 13:13:43;;;;;;;;;;;564.10;2432.00;;;;;;5092212;28;20021;-61
2022/09/28 13:16:09;;;;;;;;;;;564.00;2432.00;;;;;;5090100;28;19915;-71
2022/09/28 13:18:37;;;;;;;;;;;564.10;2432.00;;;;;;5092778;28;19908;-70
2022/09/28 13:21:17;;;;;;;;;;;564.10;2432.00;;;;;;5092649;28;20007;-60
2022/09/28 13:23:45;;;;;;;;;;;564.10;2432.00;;;;;;5092893;28;20308;-71
2022/09/28 13:26:26;;;;;;;;;;;564.00;2432.00;;;;;;5092745;28;20322;-62
2022/09/28 13:28:54;;;;;;;;;;;563.90;2432.00;;;;;;5092562;28;19951;-71
2022/09/28 13:31:22;;;;;;;;;;;563.80;2432.00;;;;;;5092835;28;19909;-60
2022/09/28 13:33:48;;;;;;;;;;;563.70;2432.00;;;;;;5092693;28;19916;-72
2022/09/28 13:36:26;;;;;;;;;;;563.80;2432.00;;;;;;5092380;28;19908;-60
2022/09/28 13:38:53;;;;;;;;;;;563.80;2432.00;;;;;;5092252;28;19908;-60
2022/09/28 13:41:20;;;;;;;;;;;564.10;2432.00;;;;;;5092536;28;19915;-71
2022/09/28 13:43:47;;;;;;;;;;;564.10;2432.00;;;;;;5092195;28;19974;-71
2022/09/28 13:46:31;;;;;;;;;;;589.00;2432.00;;;;;;5092142;28;20354;-72
2022/09/28 13:48:59;;;;;;;;;;;589.30;2432.00;;;;;;5092475;28;19960;-60
2022/09/28 13:51:31;;;;;;;;;;;589.40;2432.00;;;;;;5092181;28;19915;-69
2022/09/28 13:54:02;;;;;;;;;;;589.70;2432.00;;;;;;5092393;28;19915;-61
2022/09/28 13:56:37;;;;;;;;;;;589.60;2432.00;;;;;;5092341;28;19908;-60
2022/09/28 13:59:29;;;;;;;;;;;589.40;2432.00;;;;;;5091897;28;19909;-60
2022/09/28 14:02:15;;;;;;;;;;;589.50;2432.00;;;;;;5090593;28;19916;-72
2022/09/28 14:04:58;;;;;;;;;;;589.50;2432.00;;;;;;5091610;28;19928;-61